Terminal Aerodrome Forecast
Issued by NWS Jackson, MS

Home | Current Version | Previous Version | Text Only | Print | Product List | Glossary On
Versions: 1 2 3 4 5 6 7 8 9 10 11 12 13 14 15 16 17 18 19 20 21 22 23 24
000
FTUS44 KJAN 222300
TAFHBG
TAF
KHBG 222330Z 2300/2324 16007KT 6SM BR SCT015 BKN040
     FM230200 17008KT 5SM BR OVC007
     FM230400 18006KT 4SM BR OVC005
     FM230600 18005KT 3SM BR OVC003
     FM230700 19004KT 1 1/2SM BR OVC001
     FM230900 17003KT 1/2SM FG OVC001
     FM231100 16002KT 1 1/2SM BR VCSH OVC001
     FM231300 15003KT 2SM BR VCTS OVC003CB
     FM231600 17008KT 4SM -TSRA BR OVC007CB
     FM231800 18011G18KT 3SM SHRA BR VCTS OVC025CB=

USA.gov is the U.S. government's official web portal to all federal, state and local government web resources and services.